Terminal Aerodrome Forecast
Issued by NWS Mt. Holly, NJ

Home | Current Version | Previous Version | Text Only | Print | Product List | Glossary On
Versions: 1 2 3 4 5 6 7 8 9 10 11 12 13 14 15 16 17 18 19 20 21 22 23 24 25 26 27 28 29 30
000
FTUS41 KPHI 021721
TAFPHL
TAF
KPHL 021721Z 0218/0324 06005KT P6SM FEW050 BKN100
      TEMPO 0218/0220 5SM SHRA BKN050
     FM030000 12004KT P6SM BKN250
     FM030900 03004KT 6SM BR BKN150
     FM031200 07006KT P6SM BKN150=

USA.gov is the U.S. government's official web portal to all federal, state and local government web resources and services.